Time;durP1;ratioP1;P1;durP2;ratioP2;P2;SDS_P1;SDS_P2;PMS_P1;PMS_P2;Temp;Humidity;BMP_temperature;BMP_pressure;BME280_temperature;BME280_humidity;BME280_pressure;Samples;Min_cycle;Max_cycle;Signal;HPM_P1;HPM_P2
2023/11/10 00:01:36;;;;;;;1.15;1.05;;;;;;;20.81;44.37;99500.50;5022860;28;20041;-71
2023/11/10 00:04:04;;;;;;;0.65;0.60;;;;;;;20.77;44.20;99495.84;5014697;28;20449;-71
2023/11/10 00:06:31;;;;;;;2.10;1.08;;;;;;;20.61;44.25;99460.19;5017536;28;20049;-71
2023/11/10 00:08:57;;;;;;;1.38;1.02;;;;;;;20.77;44.38;99488.72;5020415;28;20041;-71
2023/11/10 00:11:26;;;;;;;0.95;0.90;;;;;;;20.74;44.43;99480.44;5023278;28;20045;-71
2023/11/10 00:13:53;;;;;;;1.02;0.98;;;;;;;20.79;44.32;99488.50;5026968;28;20069;-71
2023/11/10 00:16:19;;;;;;;1.08;0.90;;;;;;;20.78;44.62;99487.69;5022972;28;20064;-71
2023/11/10 00:18:45;;;;;;;1.33;1.02;;;;;;;20.77;44.35;99477.34;5025584;28;20045;-71
2023/11/10 00:21:19;;;;;;;1.00;0.90;;;;;;;20.67;44.50;99461.97;5026745;28;20248;-71
2023/11/10 00:23:44;;;;;;;1.17;0.90;;;;;;;20.75;44.38;99474.91;5016294;28;20042;-71
2023/11/10 00:26:24;;;;;;;1.02;0.93;;;;;;;20.65;44.52;99458.75;5023496;28;20106;-70
2023/11/10 00:28:52;;;;;;;1.73;1.10;;;;;;;20.67;44.48;99464.63;5029589;28;20040;-70
2023/11/10 00:31:18;;;;;;;1.25;1.00;;;;;;;20.67;44.48;99471.75;5029847;28;20045;-70
2023/11/10 00:33:53;;;;;;;1.02;1.00;;;;;;;20.73;44.30;99476.97;5027639;28;20052;-71
2023/11/10 00:36:21;;;;;;;1.35;1.25;;;;;;;20.70;44.53;99477.41;5027186;28;20158;-71
2023/11/10 00:38:47;;;;;;;1.77;1.05;;;;;;;20.70;44.54;99477.41;5033603;28;20032;-71
2023/11/10 00:41:13;;;;;;;0.90;0.90;;;;;;;20.69;44.34;99489.03;5023991;28;20081;-71
2023/11/10 00:43:38;;;;;;;1.92;1.05;;;;;;;20.64;44.60;99480.91;5031438;28;20051;-71
2023/11/10 00:46:06;;;;;;;1.13;1.02;;;;;;;20.68;44.50;99497.97;5023242;28;20041;-71
2023/11/10 00:48:33;;;;;;;1.25;1.00;;;;;;;20.61;44.51;99478.69;5029800;28;20110;-71
2023/11/10 00:50:59;;;;;;;1.85;1.08;;;;;;;20.65;44.34;99495.78;5018843;28;20327;-71
2023/11/10 00:53:26;;;;;;;1.10;1.10;;;;;;;20.64;44.30;99491.50;5025208;28;20514;-70
2023/11/10 00:55:53;;;;;;;1.17;1.17;;;;;;;20.61;44.55;99481.34;5028223;28;20558;-71
2023/11/10 00:58:19;;;;;;;1.13;1.02;;;;;;;20.63;44.29;99483.78;5020573;28;20029;-70
2023/11/10 01:00:45;;;;;;;1.40;1.30;;;;;;;20.64;44.43;99488.03;5026764;28;20491;-70
2023/11/10 01:03:12;;;;;;;1.33;1.23;;;;;;;20.64;44.14;99493.31;5034152;28;20451;-71
2023/11/10 01:05:38;;;;;;;1.30;1.20;;;;;;;20.56;44.33;99483.84;5027472;28;20092;-71
2023/11/10 01:08:07;;;;;;;1.77;1.15;;;;;;;20.52;44.43;99475.53;5025200;28;20593;-70
2023/11/10 01:10:33;;;;;;;1.60;1.10;;;;;;;20.62;44.33;99484.78;5023275;28;20034;-70
2023/11/10 01:12:58;;;;;;;1.00;1.00;;;;;;;20.50;44.46;99474.94;5026981;28;20107;-71
2023/11/10 01:15:25;;;;;;;1.23;1.10;;;;;;;20.54;44.49;99475.31;5028962;28;20079;-71
2023/11/10 01:17:51;;;;;;;1.20;1.10;;;;;;;20.51;44.51;99475.75;5025367;28;20033;-70
2023/11/10 01:20:16;;;;;;;1.13;0.90;;;;;;;20.57;44.41;99485.47;5025834;28;20737;-70
2023/11/10 01:22:42;;;;;;;1.20;1.00;;;;;;;20.58;44.40;99483.63;5023804;28;20032;-71
2023/11/10 01:25:08;;;;;;;1.20;1.10;;;;;;;20.56;44.40;99475.09;5027229;28;20488;-71
2023/11/10 01:27:34;;;;;;;1.60;1.00;;;;;;;20.52;44.37;99464.16;5032349;28;20521;-71
2023/11/10 01:30:00;;;;;;;1.23;1.20;;;;;;;20.55;44.42;99471.66;5023659;28;21284;-71
2023/11/10 01:32:26;;;;;;;1.27;1.05;;;;;;;20.57;44.24;99476.72;5025994;28;20047;-71
2023/11/10 01:34:52;;;;;;;1.25;1.15;;;;;;;20.54;44.45;99469.22;5017063;28;20036;-70
2023/11/10 01:37:17;;;;;;;1.83;1.20;;;;;;;20.48;44.56;99460.31;5027392;28;20044;-70
2023/11/10 01:39:43;;;;;;;1.35;1.20;;;;;;;20.51;44.46;99467.81;5022872;28;20038;-70
2023/11/10 01:42:09;;;;;;;0.93;0.93;;;;;;;20.47;44.55;99469.28;5023740;28;20048;-71
2023/11/10 01:44:35;;;;;;;2.15;1.10;;;;;;;20.48;44.50;99471.72;5024462;28;20041;-71
2023/11/10 01:47:05;;;;;;;1.45;1.20;;;;;;;20.50;44.50;99463.56;5026847;28;20044;-71
2023/11/10 01:49:33;;;;;;;0.90;0.90;;;;;;;20.49;44.36;99468.03;5018704;28;20029;-71
2023/11/10 01:51:59;;;;;;;1.50;1.40;;;;;;;20.48;44.37;99463.78;5010221;28;20671;-71
2023/11/10 01:54:29;;;;;;;1.73;1.13;;;;;;;20.37;44.44;99443.28;5022308;28;20034;-71
2023/11/10 01:56:54;;;;;;;1.13;1.13;;;;;;;20.38;44.34;99450.19;5019138;28;20032;-71
2023/11/10 01:59:20;;;;;;;1.27;1.17;;;;;;;20.46;44.52;99470.28;5004325;28;20381;-71
2023/11/10 02:01:47;;;;;;;1.65;1.27;;;;;;;20.42;44.45;99461.97;5025761;28;20076;-71
2023/11/10 02:04:16;;;;;;;1.73;1.25;;;;;;;20.47;44.14;99472.75;5024661;28;20307;-70
2023/11/10 02:06:43;;;;;;;2.00;1.45;;;;;;;20.48;44.38;99468.25;5025217;28;20096;-71
2023/11/10 02:09:10;;;;;;;1.25;1.15;;;;;;;20.47;44.38;99477.22;5023702;28;20053;-70
2023/11/10 02:11:38;;;;;;;1.33;1.25;;;;;;;20.47;44.26;99470.09;5018702;28;20037;-71
2023/11/10 02:14:08;;;;;;;1.23;1.13;;;;;;;20.44;44.29;99467.03;5023650;28;20069;-71
2023/11/10 02:16:35;;;;;;;1.50;1.40;;;;;;;20.46;44.16;99471.09;5024959;28;20042;-71
2023/11/10 02:19:02;;;;;;;1.60;1.20;;;;;;;20.44;44.44;99475.78;5026111;28;20060;-71
2023/11/10 02:21:28;;;;;;;0.88;0.88;;;;;;;20.45;44.18;99468.66;5027517;28;21246;-71
2023/11/10 02:23:58;;;;;;;1.15;1.02;;;;;;;20.43;44.25;99462.78;5024084;28;20140;-71
2023/11/10 02:26:24;;;;;;;;;;;;;;;20.43;44.22;99458.31;5016913;28;20111;-71
2023/11/10 02:28:50;;;;;;;1.25;1.15;;;;;;;20.44;44.22;99453.81;5023096;28;19952;-71
2023/11/10 02:31:19;;;;;;;1.40;1.30;;;;;;;20.42;44.36;99450.59;5022804;28;20044;-70
2023/11/10 02:33:48;;;;;;;1.07;1.07;;;;;;;20.42;44.26;99456.69;5019507;28;20045;-71
2023/11/10 02:36:14;;;;;;;1.52;1.10;;;;;;;20.42;44.38;99458.53;5030336;28;20491;-71
2023/11/10 02:38:42;;;;;;;1.75;1.15;;;;;;;20.36;44.17;99452.25;5021218;28;20033;-71
2023/11/10 02:41:09;;;;;;;1.00;1.00;;;;;;;20.43;44.26;99457.50;5016005;28;20133;-70
2023/11/10 02:43:35;;;;;;;1.23;1.15;;;;;;;20.33;44.29;99446.59;5019487;28;20037;-70
2023/11/10 02:46:02;;;;;;;1.27;1.17;;;;;;;20.42;44.13;99463.81;5024695;28;20119;-71
2023/11/10 02:48:28;;;;;;;1.50;1.40;;;;;;;20.42;44.28;99455.88;5024272;28;20053;-71
2023/11/10 02:50:54;;;;;;;1.33;1.08;;;;;;;20.35;44.26;99444.53;5023253;28;20100;-71
2023/11/10 02:53:20;;;;;;;1.73;1.17;;;;;;;20.42;44.06;99445.31;5024571;28;20037;-71
2023/11/10 02:55:46;;;;;;;1.30;1.10;;;;;;;20.36;44.03;99433.75;5018903;28;20648;-70
2023/11/10 02:58:11;;;;;;;1.10;1.10;;;;;;;20.40;44.29;99442.03;5018425;28;20029;-71
2023/11/10 03:00:38;;;;;;;1.30;1.20;;;;;;;20.36;44.33;99436.38;5015124;28;20060;-71
2023/11/10 03:03:04;;;;;;;1.33;1.23;;;;;;;20.40;44.19;99431.47;5020576;28;20645;-71
2023/11/10 03:05:30;;;;;;;1.17;0.85;;;;;;;20.44;44.17;99441.41;5018824;28;20122;-71
2023/11/10 03:07:56;;;;;;;1.02;1.00;;;;;;;20.38;44.19;99430.88;5021218;28;20044;-71
2023/11/10 03:10:23;;;;;;;1.10;1.10;;;;;;;20.42;44.01;99442.66;5025939;28;20038;-70
2023/11/10 03:12:50;;;;;;;1.15;0.95;;;;;;;20.40;44.24;99432.28;5017235;28;20182;-71
2023/11/10 03:15:17;;;;;;;1.38;1.13;;;;;;;20.44;44.06;99433.47;5026289;28;20076;-71
2023/11/10 03:17:43;;;;;;;1.15;1.08;;;;;;;20.36;44.14;99425.00;5021130;28;20508;-71
2023/11/10 03:20:09;;;;;;;1.38;1.10;;;;;;;20.43;44.23;99446.91;5023621;28;20159;-71
2023/11/10 03:22:35;;;;;;;1.13;1.00;;;;;;;20.42;44.40;99443.47;5020883;28;20538;-71
2023/11/10 03:25:02;;;;;;;1.08;1.00;;;;;;;20.29;44.16;99424.22;5014493;28;20761;-71
2023/11/10 03:27:27;;;;;;;1.23;1.02;;;;;;;20.43;44.22;99445.09;5029154;28;20036;-71
2023/11/10 03:29:53;;;;;;;0.90;0.90;;;;;;;20.42;44.05;99443.47;5023708;28;20050;-71
2023/11/10 03:32:20;;;;;;;0.85;0.80;;;;;;;20.40;44.19;99437.56;5024614;28;20404;-70
2023/11/10 03:34:46;;;;;;;1.55;1.02;;;;;;;20.37;44.22;99430.06;5023201;28;20033;-71
2023/11/10 03:37:12;;;;;;;1.90;1.27;;;;;;;20.39;44.21;99446.53;5024356;28;20038;-71
2023/11/10 03:39:38;;;;;;;1.50;1.17;;;;;;;20.41;44.16;99438.41;5026244;28;20651;-71
2023/11/10 03:42:07;;;;;;;2.70;1.00;;;;;;;20.38;44.26;99436.97;5016547;28;20038;-71
2023/11/10 03:44:33;;;;;;;1.27;1.17;;;;;;;20.38;44.17;99439.63;5015644;28;20049;-71
2023/11/10 03:46:59;;;;;;;1.58;1.00;;;;;;;20.39;44.13;99441.22;5023345;28;20500;-71
2023/11/10 03:49:26;;;;;;;1.40;1.20;;;;;;;20.34;44.08;99438.44;5023327;28;20050;-70
2023/11/10 03:51:52;;;;;;;1.58;1.15;;;;;;;20.39;44.15;99446.53;5027156;28;20049;-70
2023/11/10 03:54:18;;;;;;;1.02;1.02;;;;;;;20.38;44.41;99438.81;5029221;28;20104;-70
2023/11/10 03:56:45;;;;;;;1.85;1.33;;;;;;;20.30;44.29;99425.88;5028865;28;20073;-70
2023/11/10 03:59:11;;;;;;;1.20;1.13;;;;;;;20.36;44.23;99431.09;5030945;28;20055;-70
2023/11/10 04:01:37;;;;;;;1.35;1.10;;;;;;;20.40;44.22;99445.50;5059983;28;20033;-71
2023/11/10 04:04:03;;;;;;;0.90;0.90;;;;;;;20.37;44.15;99430.06;5033709;28;20052;-70
2023/11/10 04:06:30;;;;;;;1.23;1.13;;;;;;;20.38;44.34;99430.88;5034201;28;20061;-71
2023/11/10 04:08:56;;;;;;;1.00;1.00;;;;;;;20.33;43.98;99425.44;5027691;28;20033;-70
2023/11/10 04:11:22;;;;;;;1.80;1.30;;;;;;;20.37;44.14;99429.25;5029668;28;20099;-71
2023/11/10 04:13:47;;;;;;;0.80;0.80;;;;;;;20.38;44.28;99429.03;5029414;28;20033;-70
2023/11/10 04:16:22;;;;;;;1.90;1.23;;;;;;;20.35;44.09;99426.03;5029781;28;20049;-70
2023/11/10 04:18:52;;;;;;;1.65;1.10;;;;;;;20.37;44.04;99424.78;5026228;28;20590;-71
2023/11/10 04:21:21;;;;;;;1.25;1.20;;;;;;;20.14;44.16;99393.66;5028910;28;20064;-71
2023/11/10 04:23:51;;;;;;;1.45;1.13;;;;;;;20.35;44.25;99424.19;5024822;28;20041;-70
2023/11/10 04:26:17;;;;;;;1.73;1.20;;;;;;;20.14;44.16;99390.22;5022540;28;20569;-71
2023/11/10 04:28:47;;;;;;;0.95;0.82;;;;;;;20.11;44.24;99378.25;5020566;28;20132;-71
2023/11/10 04:31:16;;;;;;;1.20;1.00;;;;;;;20.33;44.25;99422.78;5029723;28;20037;-71
2023/11/10 04:33:45;;;;;;;1.00;0.80;;;;;;;20.26;44.21;99400.88;5024708;28;20044;-70
2023/11/10 04:36:14;;;;;;;1.00;1.00;;;;;;;20.31;44.39;99414.28;5026238;28;20044;-70
2023/11/10 04:38:43;;;;;;;2.03;1.20;;;;;;;20.33;44.26;99418.31;5024461;28;20720;-71
2023/11/10 04:41:09;;;;;;;1.77;1.17;;;;;;;20.33;44.24;99422.78;5022607;28;20613;-71
2023/11/10 04:43:35;;;;;;;1.20;1.10;;;;;;;20.29;43.96;99416.28;5028959;28;20038;-71
2023/11/10 04:46:04;;;;;;;2.20;1.40;;;;;;;20.26;44.20;99409.63;5028184;28;20037;-71
2023/11/10 04:48:29;;;;;;;1.20;1.10;;;;;;;20.19;44.35;99398.31;5028716;28;20033;-70
2023/11/10 04:50:55;;;;;;;2.03;0.90;;;;;;;20.31;44.20;99417.72;5022805;28;20575;-70
2023/11/10 04:53:21;;;;;;;1.00;0.80;;;;;;;20.32;44.18;99418.53;5014969;28;20038;-71
2023/11/10 04:55:46;;;;;;;1.15;1.02;;;;;;;20.19;44.39;99400.94;5008562;28;20403;-71
2023/11/10 04:58:11;;;;;;;1.40;1.20;;;;;;;20.28;44.13;99412.03;5010672;28;20046;-71
2023/11/10 05:00:37;;;;;;;0.90;0.90;;;;;;;20.30;44.23;99412.66;5023388;28;20057;-71
2023/11/10 05:03:03;;;;;;;1.05;1.00;;;;;;;20.23;44.19;99407.41;5027654;28;20032;-70
2023/11/10 05:05:29;;;;;;;1.40;0.82;;;;;;;20.29;44.24;99414.50;5021685;28;20037;-71
2023/11/10 05:07:55;;;;;;;1.05;1.05;;;;;;;20.29;44.26;99422.44;5025134;28;20144;-70
2023/11/10 05:10:20;;;;;;;1.27;1.17;;;;;;;20.16;44.22;99399.53;5029921;28;20159;-70
2023/11/10 05:12:46;;;;;;;0.93;0.85;;;;;;;20.29;44.08;99419.78;5024402;28;20766;-71
2023/11/10 05:15:14;;;;;;;0.98;0.90;;;;;;;20.27;44.41;99421.00;5032272;28;20063;-71
2023/11/10 05:17:44;;;;;;;0.90;0.90;;;;;;;20.16;44.32;99399.53;5033183;28;20037;-70
2023/11/10 05:20:11;;;;;;;0.95;0.90;;;;;;;20.29;44.51;99421.59;5022883;28;20054;-70
2023/11/10 05:22:39;;;;;;;1.30;0.93;;;;;;;20.24;44.23;99409.03;5027085;28;20111;-71
2023/11/10 05:25:06;;;;;;;1.20;1.10;;;;;;;20.27;43.97;99413.88;5025389;28;20045;-71
2023/11/10 05:27:31;;;;;;;1.98;1.05;;;;;;;20.21;44.28;99404.97;5025665;28;20376;-71
2023/11/10 05:29:57;;;;;;;0.77;0.77;;;;;;;20.31;44.20;99422.22;5026204;28;20056;-70
2023/11/10 05:32:22;;;;;;;0.90;0.90;;;;;;;20.26;44.38;99420.19;5020708;28;20038;-70
2023/11/10 05:34:51;;;;;;;1.00;0.90;;;;;;;20.21;44.24;99426.13;5023100;28;20688;-71
2023/11/10 05:37:18;;;;;;;1.15;0.95;;;;;;;20.29;44.31;99433.00;5037373;28;20138;-71
2023/11/10 05:39:46;;;;;;;1.40;1.30;;;;;;;20.29;44.40;99437.44;5022698;28;20048;-71
2023/11/10 05:42:13;;;;;;;1.25;0.95;;;;;;;20.16;44.26;99414.59;5021692;28;20135;-71
2023/11/10 05:44:39;;;;;;;1.30;1.15;;;;;;;20.26;44.21;99427.31;5020999;28;20572;-71
2023/11/10 05:47:04;;;;;;;1.42;1.08;;;;;;;20.24;44.23;99422.25;5024452;28;20075;-71
2023/11/10 05:49:30;;;;;;;0.90;0.90;;;;;;;20.29;44.29;99435.63;5019550;28;20061;-71
2023/11/10 05:51:55;;;;;;;1.13;0.82;;;;;;;20.23;44.28;99428.56;5021369;28;20038;-71
2023/11/10 05:54:21;;;;;;;2.22;1.00;;;;;;;20.26;44.03;99424.66;5019683;28;20041;-71
2023/11/10 05:56:46;;;;;;;1.02;1.02;;;;;;;20.26;44.14;99419.38;5025019;28;20033;-71
2023/11/10 05:59:12;;;;;;;1.20;1.05;;;;;;;20.24;44.22;99414.31;5024750;28;20748;-71
2023/11/10 06:01:37;;;;;;;0.77;0.77;;;;;;;20.31;44.17;99423.00;5023260;28;20060;-71
2023/11/10 06:04:03;;;;;;;1.25;1.02;;;;;;;20.22;44.18;99413.72;5022261;28;20033;-71
2023/11/10 06:06:29;;;;;;;1.20;1.10;;;;;;;20.31;44.25;99428.31;5021539;28;20041;-71
2023/11/10 06:08:55;;;;;;;1.23;1.15;;;;;;;20.25;44.10;99415.13;5020439;28;20033;-71
2023/11/10 06:11:24;;;;;;;1.55;1.10;;;;;;;20.28;44.15;99415.50;5024786;28;20036;-71
2023/11/10 06:13:50;;;;;;;1.80;1.30;;;;;;;20.28;44.17;99415.50;5025518;28;20045;-71
2023/11/10 06:16:20;;;;;;;1.13;1.10;;;;;;;20.19;44.14;99404.41;5025538;28;20099;-71
2023/11/10 06:18:46;;;;;;;1.20;1.13;;;;;;;20.26;44.33;99409.63;5020940;28;20038;-70
2023/11/10 06:21:11;;;;;;;1.15;1.05;;;;;;;20.27;44.07;99413.06;5029740;28;20736;-70
2023/11/10 06:23:37;;;;;;;1.13;1.00;;;;;;;20.13;44.17;99391.25;5021611;28;20041;-70
2023/11/10 06:26:05;;;;;;;1.00;1.00;;;;;;;20.27;44.34;99415.72;5023834;28;20107;-71
2023/11/10 06:28:30;;;;;;;2.92;1.10;;;;;;;20.25;44.34;99412.47;5021950;28;20045;-71
2023/11/10 06:30:56;;;;;;;1.48;1.27;;;;;;;20.05;44.17;99378.28;5023226;28;20799;-71
2023/11/10 06:33:22;;;;;;;1.33;1.17;;;;;;;20.19;44.38;99407.03;5020243;28;20046;-70
2023/11/10 06:35:47;;;;;;;1.08;1.00;;;;;;;20.23;44.38;99417.97;5011894;28;20769;-71
2023/11/10 06:38:13;;;;;;;1.20;1.10;;;;;;;20.25;44.23;99425.69;5020826;28;20025;-71
2023/11/10 06:40:39;;;;;;;1.40;1.23;;;;;;;20.22;44.32;99432.22;5020300;28;20038;-71
2023/11/10 06:43:05;;;;;;;1.35;1.25;;;;;;;20.15;44.21;99416.44;5029522;28;20044;-71
2023/11/10 06:45:30;;;;;;;1.92;1.33;;;;;;;20.22;44.17;99429.59;4984139;28;20372;-71
2023/11/10 06:47:59;;;;;;;1.00;1.00;;;;;;;20.22;44.20;99426.94;5022069;28;20065;-71
2023/11/10 06:50:25;;;;;;;1.30;1.20;;;;;;;20.18;44.32;99417.81;5020856;28;20527;-71
2023/11/10 06:52:50;;;;;;;1.27;1.00;;;;;;;20.25;44.24;99430.97;5022041;28;20049;-71
2023/11/10 06:55:16;;;;;;;1.60;1.13;;;;;;;20.23;44.26;99425.91;5024776;28;20045;-70
2023/11/10 06:57:42;;;;;;;1.40;1.30;;;;;;;20.23;44.29;99428.56;5017604;28;20134;-71
2023/11/10 07:00:10;;;;;;;1.00;1.00;;;;;;;20.24;44.19;99432.81;5007944;28;20053;-71
2023/11/10 07:02:36;;;;;;;0.80;0.80;;;;;;;20.26;44.26;99435.25;5023359;28;20399;-71
2023/11/10 07:05:03;;;;;;;1.15;1.00;;;;;;;20.30;44.14;99434.63;5028225;28;20563;-70
2023/11/10 07:07:30;;;;;;;1.05;1.05;;;;;;;20.35;44.08;99420.75;5021378;28;20034;-70
2023/11/10 07:09:59;;;;;;;1.08;1.05;;;;;;;20.68;43.54;99431.84;5027483;28;20045;-71
2023/11/10 07:12:25;;;;;;;1.52;1.17;;;;;;;21.28;42.64;99429.38;5025341;28;20048;-70
2023/11/10 07:14:51;;;;;;;1.05;0.90;;;;;;;21.89;41.36;99432.81;5024996;28;20034;-71
2023/11/10 07:17:17;;;;;;;0.70;0.70;;;;;;;21.98;41.27;99437.59;5033289;28;20048;-71
2023/11/10 07:19:44;;;;;;;0.95;0.82;;;;;;;21.77;41.91;99440.75;5007903;28;20041;-71
2023/11/10 07:22:10;;;;;;;1.38;0.93;;;;;;;21.64;41.84;99443.59;4990118;28;20400;-70
2023/11/10 07:24:35;;;;;;;0.98;0.98;;;;;;;21.45;42.27;99444.66;5024571;28;20075;-71
2023/11/10 07:27:06;;;;;;;1.00;0.90;;;;;;;21.33;42.87;99450.69;5025687;28;20057;-71
2023/11/10 07:29:33;;;;;;;1.20;1.10;;;;;;;21.19;43.17;99445.78;5023380;28;20142;-71
2023/11/10 07:32:01;;;;;;;1.77;1.13;;;;;;;21.15;43.45;99455.16;5034644;28;20384;-71
2023/11/10 07:34:26;;;;;;;1.00;0.90;;;;;;;21.11;43.51;99460.09;5032161;28;20063;-71
2023/11/10 07:36:53;;;;;;;1.17;1.00;;;;;;;21.03;43.63;99450.63;5028809;28;20037;-71
2023/11/10 07:39:19;;;;;;;1.50;1.30;;;;;;;21.00;43.52;99458.16;5028972;28;20069;-71
2023/11/10 07:41:44;;;;;;;1.55;1.05;;;;;;;20.97;43.74;99459.41;5035107;28;20130;-71
2023/11/10 07:44:12;;;;;;;1.08;1.02;;;;;;;20.96;43.62;99465.75;5035458;28;20123;-70
2023/11/10 07:46:38;;;;;;;1.35;0.98;;;;;;;20.95;43.67;99468.63;5028318;28;20037;-71
2023/11/10 07:49:03;;;;;;;1.25;0.80;;;;;;;20.95;43.76;99476.56;5030593;28;20100;-71
2023/11/10 07:51:29;;;;;;;1.15;1.02;;;;;;;20.95;43.80;99484.50;5030411;28;20041;-70
2023/11/10 07:53:54;;;;;;;1.27;0.93;;;;;;;20.86;43.82;99476.03;5027336;28;20211;-70
2023/11/10 07:56:20;;;;;;;0.88;0.80;;;;;;;20.76;43.89;99471.25;5034229;28;20578;-70
2023/11/10 07:58:46;;;;;;;1.00;0.90;;;;;;;20.88;43.91;99500.44;5026934;28;20091;-70
2023/11/10 08:01:13;;;;;;;1.08;1.00;;;;;;;20.88;43.76;99510.22;5027099;28;20041;-71
2023/11/10 08:03:42;;;;;;;1.15;1.05;;;;;;;20.66;43.80;99478.88;5029106;28;20125;-71
2023/11/10 08:06:12;;;;;;;1.33;1.10;;;;;;;20.81;44.01;99507.63;5036102;28;20037;-71
2023/11/10 08:08:38;;;;;;;1.10;1.00;;;;;;;20.84;43.90;99515.16;5025039;28;20087;-71
2023/11/10 08:11:05;;;;;;;1.15;1.00;;;;;;;20.72;43.94;99501.00;5030817;28;20037;-71
2023/11/10 08:13:34;;;;;;;1.08;0.98;;;;;;;20.61;43.79;99481.34;5026359;28;20037;-72
2023/11/10 08:16:00;;;;;;;1.10;1.00;;;;;;;20.79;43.90;99509.66;5026860;28;20106;-72
2023/11/10 08:18:26;;;;;;;1.98;1.20;;;;;;;20.77;43.98;99509.09;5028869;28;20033;-72
2023/11/10 08:20:52;;;;;;;1.65;1.20;;;;;;;20.76;43.89;99510.13;5028418;28;20075;-73
2023/11/10 08:23:18;;;;;;;1.63;1.20;;;;;;;20.77;44.04;99512.53;5010273;28;20723;-70
2023/11/10 08:25:45;;;;;;;1.25;1.00;;;;;;;20.80;43.95;99511.28;5029960;28;20041;-71
2023/11/10 08:28:11;;;;;;;1.60;1.30;;;;;;;20.77;43.66;99503.78;5024391;28;20053;-70
2023/11/10 08:30:37;;;;;;;1.50;1.23;;;;;;;20.82;43.54;99511.88;5029275;28;20056;-70
2023/11/10 08:33:03;;;;;;;1.10;0.95;;;;;;;20.83;43.83;99510.06;5028890;28;20044;-70
2023/11/10 08:35:29;;;;;;;1.88;1.40;;;;;;;20.81;43.81;99504.97;5036550;28;20033;-70
2023/11/10 08:37:54;;;;;;;1.25;1.08;;;;;;;20.83;43.72;99513.53;5020790;28;20041;-71
2023/11/10 08:40:21;;;;;;;1.08;1.08;;;;;;;20.80;43.63;99513.94;5033503;28;20613;-70
2023/11/10 08:42:46;;;;;;;2.97;1.30;;;;;;;20.75;43.53;99509.31;5024863;28;20048;-71
2023/11/10 08:45:14;;;;;;;1.02;0.90;;;;;;;20.81;43.74;99516.38;5025898;28;20025;-71
2023/11/10 08:47:43;;;;;;;1.60;1.23;;;;;;;20.78;43.44;99518.63;5022261;28;20049;-71
2023/11/10 08:50:10;;;;;;;1.35;1.20;;;;;;;20.81;43.42;99513.72;5025597;28;20088;-71
2023/11/10 08:52:41;;;;;;;0.88;0.88;;;;;;;20.86;43.50;99507.78;5042272;28;20033;-71
2023/11/10 08:55:11;;;;;;;1.48;1.38;;;;;;;20.89;43.13;99509.19;5031452;28;20047;-71
2023/11/10 08:57:40;;;;;;;;;;;;;;;21.17;42.67;99512.16;5028939;28;20037;-70
2023/11/10 09:00:07;;;;;;;1.95;1.45;;;;;;;21.25;42.76;99508.44;5021753;28;19966;-71
2023/11/10 09:02:35;;;;;;;1.42;1.13;;;;;;;21.27;42.65;99514.31;5017216;28;20536;-71
2023/11/10 09:05:00;;;;;;;1.55;1.33;;;;;;;21.25;42.63;99511.09;5025204;28;20502;-70
2023/11/10 09:07:27;;;;;;;1.30;1.20;;;;;;;21.27;42.74;99511.69;5026826;28;20053;-70
2023/11/10 09:09:53;;;;;;;3.58;1.42;;;;;;;21.22;42.63;99512.31;5031650;28;20072;-70
2023/11/10 09:12:22;;;;;;;2.47;1.45;;;;;;;21.15;42.91;99516.03;5024020;28;20041;-72
2023/11/10 09:14:48;;;;;;;1.70;1.30;;;;;;;21.09;43.10;99513.25;5021099;28;20056;-70
2023/11/10 09:17:13;;;;;;;1.33;1.20;;;;;;;21.13;42.93;99525.00;5027607;28;20039;-70
2023/11/10 09:19:39;;;;;;;2.60;1.70;;;;;;;21.07;43.10;99525.91;5022897;28;20558;-71
2023/11/10 09:22:05;;;;;;;1.48;1.38;;;;;;;21.12;43.00;99530.53;5023906;28;20045;-70
2023/11/10 09:24:31;;;;;;;1.08;1.08;;;;;;;21.03;43.00;99516.78;5025410;28;20038;-70
2023/11/10 09:27:00;;;;;;;2.63;1.77;;;;;;;20.95;42.20;99529.47;5031428;28;20064;-73
2023/11/10 09:29:25;;;;;;;1.67;1.47;;;;;;;20.98;42.55;99527.19;5027159;28;20045;-74
2023/11/10 09:31:54;;;;;;;2.63;1.75;;;;;;;20.97;42.39;99538.00;5020598;28;20048;-71
2023/11/10 09:34:23;;;;;;;2.40;1.80;;;;;;;21.00;42.20;99538.38;5027034;28;20041;-71
2023/11/10 09:36:49;;;;;;;3.08;1.92;;;;;;;21.05;42.21;99538.56;5017094;28;20057;-70
2023/11/10 09:39:15;;;;;;;5.53;1.77;;;;;;;20.98;42.69;99540.44;5020988;28;20064;-72
2023/11/10 09:41:45;;;;;;;4.20;1.65;;;;;;;20.96;42.79;99539.03;5027946;28;20105;-74
2023/11/10 09:44:14;;;;;;;4.10;1.60;;;;;;;21.00;42.98;99543.66;5024550;28;20055;-75
2023/11/10 09:46:43;;;;;;;4.10;2.00;;;;;;;20.96;42.81;99537.19;5029505;28;20041;-73
2023/11/10 09:49:10;;;;;;;4.20;1.77;;;;;;;20.93;42.87;99535.00;5005958;28;20041;-74
2023/11/10 09:51:39;;;;;;;2.22;1.60;;;;;;;20.99;42.99;99544.69;5028428;28;20041;-73
2023/11/10 09:54:05;;;;;;;1.70;1.58;;;;;;;20.96;42.86;99542.50;5031954;28;20040;-74
2023/11/10 09:56:31;;;;;;;3.80;1.67;;;;;;;20.92;42.86;99537.84;5022351;28;20099;-73
2023/11/10 09:58:59;;;;;;;2.65;1.48;;;;;;;20.96;43.14;99537.19;5031310;28;20124;-71
2023/11/10 10:01:25;;;;;;;3.22;1.60;;;;;;;20.96;42.91;99545.13;5022646;28;20055;-74
2023/11/10 10:03:50;;;;;;;4.47;1.70;;;;;;;20.89;42.98;99533.00;5027424;28;20033;-75
2023/11/10 10:06:17;;;;;;;5.47;1.90;;;;;;;20.88;42.97;99541.97;5019181;28;20663;-77
2023/11/10 10:08:43;;;;;;;3.35;1.55;;;;;;;20.89;43.19;99538.28;5025258;28;20041;-74
2023/11/10 10:11:09;;;;;;;3.30;1.63;;;;;;;20.72;43.10;99522.16;5021397;28;20091;-73
2023/11/10 10:13:34;;;;;;;2.45;1.42;;;;;;;20.86;43.00;99544.84;5030247;28;20542;-72
2023/11/10 10:16:11;;;;;;;3.28;1.60;;;;;;;20.88;43.05;99558.66;5017872;28;20526;-71
2023/11/10 10:18:44;;;;;;;1.80;1.30;;;;;;;20.88;43.06;99555.19;5021991;28;20080;-71
2023/11/10 10:21:11;;;;;;;2.22;1.70;;;;;;;20.64;43.12;99510.00;5022878;28;20379;-72
2023/11/10 10:23:36;;;;;;;3.33;1.50;;;;;;;20.84;43.01;99538.16;5018912;28;20044;-72
2023/11/10 10:26:09;;;;;;;2.05;1.50;;;;;;;20.90;43.22;99551.31;5019282;28;20524;-72
2023/11/10 10:28:35;;;;;;;1.70;1.60;;;;;;;20.90;42.95;99555.78;5021567;28;20090;-72
2023/11/10 10:31:02;;;;;;;3.35;1.70;;;;;;;20.87;43.15;99559.69;5015361;28;20037;-72
2023/11/10 10:33:27;;;;;;;2.30;1.60;;;;;;;20.98;42.73;99561.59;5021538;28;20486;-72
2023/11/10 10:35:53;;;;;;;1.40;1.30;;;;;;;21.12;42.47;99559.66;5031732;28;20038;-73
2023/11/10 10:38:22;;;;;;;3.20;1.52;;;;;;;21.22;42.27;99548.56;5018158;28;20480;-73
2023/11/10 10:40:55;;;;;;;2.78;1.45;;;;;;;21.23;42.25;99536.94;5023607;28;20395;-73
2023/11/10 10:43:21;;;;;;;3.08;1.50;;;;;;;21.29;42.53;99551.97;5025591;28;20094;-73
2023/11/10 10:45:48;;;;;;;4.10;1.95;;;;;;;21.23;42.48;99544.91;5027928;28;20045;-72
2023/11/10 10:48:18;;;;;;;2.10;1.50;;;;;;;21.24;42.72;99557.09;5020217;28;20139;-73
2023/11/10 10:50:44;;;;;;;4.40;1.80;;;;;;;21.13;42.74;99542.75;5023227;28;20030;-73
2023/11/10 10:53:12;;;;;;;7.82;2.28;;;;;;;21.11;42.74;99539.50;5019782;28;20060;-73
2023/11/10 10:55:39;;;;;;;1.77;1.52;;;;;;;21.19;42.90;99551.66;5018804;28;20025;-73
2023/11/10 10:58:07;;;;;;;1.92;1.40;;;;;;;21.15;42.73;99547.81;5023360;28;20037;-73
2023/11/10 11:00:32;;;;;;;1.60;1.50;;;;;;;21.15;42.68;99551.25;5022142;28;20067;-73
2023/11/10 11:03:13;;;;;;;2.00;1.45;;;;;;;21.09;43.11;99536.28;5021486;28;20041;-73
2023/11/10 11:05:47;;;;;;;3.50;1.85;;;;;;;21.13;43.09;99543.53;5019769;28;20789;-73
2023/11/10 11:08:38;;;;;;;1.98;1.45;;;;;;;21.13;42.74;99540.91;5019487;28;20184;-72
2023/11/10 11:11:12;;;;;;;2.67;1.58;;;;;;;21.11;42.94;99544.78;5020865;28;20040;-72
2023/11/10 11:14:15;;;;;;;2.55;1.67;;;;;;;21.09;42.98;99537.06;5018463;28;20095;-72
2023/11/10 11:17:17;;;;;;;1.55;1.40;;;;;;;21.09;43.08;99528.31;5026159;28;20504;-71
2023/11/10 11:19:44;;;;;;;1.80;1.40;;;;;;;21.03;42.96;99526.56;5018484;28;20098;-73
2023/11/10 11:22:10;;;;;;;2.63;1.65;;;;;;;21.04;42.90;99525.53;5017187;28;20045;-72
2023/11/10 11:24:36;;;;;;;1.60;1.38;;;;;;;21.04;43.13;99526.34;5019523;28;20501;-71
2023/11/10 11:27:06;;;;;;;1.73;1.48;;;;;;;21.02;42.93;99525.75;5022272;28;20046;-71
2023/11/10 11:29:37;;;;;;;1.63;1.52;;;;;;;21.05;42.91;99529.81;5020730;28;20045;-72
2023/11/10 11:32:09;;;;;;;1.50;1.40;;;;;;;21.04;42.98;99530.84;5020691;28;20668;-71
2023/11/10 11:34:36;;;;;;;2.70;1.52;;;;;;;21.01;42.76;99521.50;5014443;28;20064;-72